sensor_id;sensor_type;location;lat;lon;timestamp;P1;durP1;ratioP1;P2;durP2;ratioP2
16159;SDS011;8185;57.818;15.224;2023-12-07T00:01:06;3.90;;;3.60;;
16159;SDS011;8185;57.818;15.224;2023-12-07T00:03:35;4.30;;;3.90;;
16159;SDS011;8185;57.818;15.224;2023-12-07T00:06:02;4.57;;;3.63;;
16159;SDS011;8185;57.818;15.224;2023-12-07T00:08:30;4.33;;;3.63;;
16159;SDS011;8185;57.818;15.224;2023-12-07T00:10:57;4.73;;;4.00;;
16159;SDS011;8185;57.818;15.224;2023-12-07T00:13:24;4.37;;;3.97;;
16159;SDS011;8185;57.818;15.224;2023-12-07T00:15:52;4.90;;;4.27;;
16159;SDS011;8185;57.818;15.224;2023-12-07T00:18:19;5.13;;;3.80;;
16159;SDS011;8185;57.818;15.224;2023-12-07T00:20:48;4.50;;;4.10;;
16159;SDS011;8185;57.818;15.224;2023-12-07T00:23:15;4.40;;;4.00;;
16159;SDS011;8185;57.818;15.224;2023-12-07T00:25:42;6.03;;;4.80;;
16159;SDS011;8185;57.818;15.224;2023-12-07T00:28:11;5.07;;;3.73;;
16159;SDS011;8185;57.818;15.224;2023-12-07T00:30:39;4.67;;;4.27;;
16159;SDS011;8185;57.818;15.224;2023-12-07T00:33:07;4.97;;;4.17;;
16159;SDS011;8185;57.818;15.224;2023-12-07T00:35:35;4.67;;;4.27;;
16159;SDS011;8185;57.818;15.224;2023-12-07T00:38:03;4.67;;;4.20;;
16159;SDS011;8185;57.818;15.224;2023-12-07T00:40:33;5.00;;;4.50;;
16159;SDS011;8185;57.818;15.224;2023-12-07T00:43:04;5.10;;;4.20;;
16159;SDS011;8185;57.818;15.224;2023-12-07T00:45:32;4.57;;;4.17;;
16159;SDS011;8185;57.818;15.224;2023-12-07T00:47:59;4.30;;;3.90;;
16159;SDS011;8185;57.818;15.224;2023-12-07T00:50:27;5.27;;;4.53;;
16159;SDS011;8185;57.818;15.224;2023-12-07T00:52:54;4.60;;;4.20;;
16159;SDS011;8185;57.818;15.224;2023-12-07T00:55:23;4.33;;;3.93;;
16159;SDS011;8185;57.818;15.224;2023-12-07T00:57:50;5.50;;;5.00;;
16159;SDS011;8185;57.818;15.224;2023-12-07T01:00:17;4.97;;;4.57;;
16159;SDS011;8185;57.818;15.224;2023-12-07T01:02:45;5.00;;;4.50;;
16159;SDS011;8185;57.818;15.224;2023-12-07T01:05:12;5.27;;;4.77;;
16159;SDS011;8185;57.818;15.224;2023-12-07T01:07:39;4.80;;;4.40;;
16159;SDS011;8185;57.818;15.224;2023-12-07T01:10:07;5.50;;;5.00;;
16159;SDS011;8185;57.818;15.224;2023-12-07T01:12:36;5.73;;;5.13;;
16159;SDS011;8185;57.818;15.224;2023-12-07T01:15:03;5.20;;;4.70;;
16159;SDS011;8185;57.818;15.224;2023-12-07T01:17:31;5.63;;;5.03;;
16159;SDS011;8185;57.818;15.224;2023-12-07T01:19:58;6.00;;;5.43;;
16159;SDS011;8185;57.818;15.224;2023-12-07T01:22:26;6.00;;;5.13;;
16159;SDS011;8185;57.818;15.224;2023-12-07T01:24:53;6.37;;;5.60;;
16159;SDS011;8185;57.818;15.224;2023-12-07T01:27:20;6.83;;;5.60;;
16159;SDS011;8185;57.818;15.224;2023-12-07T01:29:49;6.30;;;5.40;;
16159;SDS011;8185;57.818;15.224;2023-12-07T01:32:16;5.73;;;5.10;;
16159;SDS011;8185;57.818;15.224;2023-12-07T01:34:44;7.17;;;6.07;;
16159;SDS011;8185;57.818;15.224;2023-12-07T01:37:11;7.30;;;5.90;;
16159;SDS011;8185;57.818;15.224;2023-12-07T01:39:38;5.70;;;5.17;;
16159;SDS011;8185;57.818;15.224;2023-12-07T01:42:07;6.87;;;5.37;;
16159;SDS011;8185;57.818;15.224;2023-12-07T01:44:36;5.97;;;5.43;;
16159;SDS011;8185;57.818;15.224;2023-12-07T01:47:05;6.00;;;5.43;;
16159;SDS011;8185;57.818;15.224;2023-12-07T01:49:33;6.30;;;5.70;;
16159;SDS011;8185;57.818;15.224;2023-12-07T01:52:01;6.23;;;5.63;;
16159;SDS011;8185;57.818;15.224;2023-12-07T01:54:29;6.60;;;6.00;;
16159;SDS011;8185;57.818;15.224;2023-12-07T01:56:57;6.53;;;5.53;;
16159;SDS011;8185;57.818;15.224;2023-12-07T01:59:24;6.10;;;5.50;;
16159;SDS011;8185;57.818;15.224;2023-12-07T02:01:50;6.43;;;5.87;;
16159;SDS011;8185;57.818;15.224;2023-12-07T02:04:19;6.33;;;5.73;;
16159;SDS011;8185;57.818;15.224;2023-12-07T02:06:46;6.50;;;5.50;;
16159;SDS011;8185;57.818;15.224;2023-12-07T02:09:14;6.30;;;5.70;;
16159;SDS011;8185;57.818;15.224;2023-12-07T02:11:42;6.77;;;5.83;;
16159;SDS011;8185;57.818;15.224;2023-12-07T02:14:09;7.20;;;5.80;;
16159;SDS011;8185;57.818;15.224;2023-12-07T02:16:39;6.87;;;6.20;;
16159;SDS011;8185;57.818;15.224;2023-12-07T02:19:15;6.23;;;5.60;;
16159;SDS011;8185;57.818;15.224;2023-12-07T02:21:59;7.27;;;5.53;;
16159;SDS011;8185;57.818;15.224;2023-12-07T02:24:29;7.03;;;5.80;;
16159;SDS011;8185;57.818;15.224;2023-12-07T02:27:02;7.23;;;5.40;;
16159;SDS011;8185;57.818;15.224;2023-12-07T02:29:29;6.30;;;5.53;;
16159;SDS011;8185;57.818;15.224;2023-12-07T02:31:56;6.40;;;5.40;;
16159;SDS011;8185;57.818;15.224;2023-12-07T02:34:23;6.53;;;5.93;;
16159;SDS011;8185;57.818;15.224;2023-12-07T02:36:51;6.57;;;5.90;;
16159;SDS011;8185;57.818;15.224;2023-12-07T02:39:22;6.43;;;5.83;;
16159;SDS011;8185;57.818;15.224;2023-12-07T02:41:51;6.00;;;5.40;;
16159;SDS011;8185;57.818;15.224;2023-12-07T02:44:21;7.30;;;5.93;;
16159;SDS011;8185;57.818;15.224;2023-12-07T02:46:48;6.63;;;5.77;;
16159;SDS011;8185;57.818;15.224;2023-12-07T02:49:16;6.70;;;6.00;;
16159;SDS011;8185;57.818;15.224;2023-12-07T02:51:43;7.77;;;6.00;;
16159;SDS011;8185;57.818;15.224;2023-12-07T02:54:10;6.70;;;6.00;;
16159;SDS011;8185;57.818;15.224;2023-12-07T02:56:37;6.73;;;6.07;;
16159;SDS011;8185;57.818;15.224;2023-12-07T02:59:05;7.40;;;6.43;;
16159;SDS011;8185;57.818;15.224;2023-12-07T03:01:33;7.33;;;5.60;;
16159;SDS011;8185;57.818;15.224;2023-12-07T03:04:01;6.93;;;6.23;;
16159;SDS011;8185;57.818;15.224;2023-12-07T03:06:28;7.70;;;6.90;;
16159;SDS011;8185;57.818;15.224;2023-12-07T03:08:55;7.00;;;6.40;;
16159;SDS011;8185;57.818;15.224;2023-12-07T03:11:23;7.27;;;6.57;;
16159;SDS011;8185;57.818;15.224;2023-12-07T03:13:50;6.80;;;6.17;;
16159;SDS011;8185;57.818;15.224;2023-12-07T03:16:18;6.87;;;6.17;;
16159;SDS011;8185;57.818;15.224;2023-12-07T03:18:47;7.37;;;6.67;;
16159;SDS011;8185;57.818;15.224;2023-12-07T03:21:14;7.43;;;6.73;;
16159;SDS011;8185;57.818;15.224;2023-12-07T03:23:41;8.17;;;6.50;;
16159;SDS011;8185;57.818;15.224;2023-12-07T03:26:08;8.37;;;6.67;;
16159;SDS011;8185;57.818;15.224;2023-12-07T03:28:35;8.03;;;6.57;;
16159;SDS011;8185;57.818;15.224;2023-12-07T03:31:03;6.23;;;5.63;;
16159;SDS011;8185;57.818;15.224;2023-12-07T03:33:30;6.90;;;6.20;;
16159;SDS011;8185;57.818;15.224;2023-12-07T03:35:59;6.63;;;6.00;;
16159;SDS011;8185;57.818;15.224;2023-12-07T03:38:27;7.73;;;6.57;;
16159;SDS011;8185;57.818;15.224;2023-12-07T03:40:54;7.43;;;6.67;;
16159;SDS011;8185;57.818;15.224;2023-12-07T03:43:22;7.17;;;6.47;;
16159;SDS011;8185;57.818;15.224;2023-12-07T03:45:49;7.50;;;6.70;;
16159;SDS011;8185;57.818;15.224;2023-12-07T03:48:17;6.83;;;6.13;;
16159;SDS011;8185;57.818;15.224;2023-12-07T03:50:44;7.20;;;6.50;;
16159;SDS011;8185;57.818;15.224;2023-12-07T03:53:13;7.70;;;6.80;;
16159;SDS011;8185;57.818;15.224;2023-12-07T03:55:41;7.73;;;6.67;;
16159;SDS011;8185;57.818;15.224;2023-12-07T03:58:08;6.83;;;6.13;;
16159;SDS011;8185;57.818;15.224;2023-12-07T04:00:35;7.87;;;6.63;;
16159;SDS011;8185;57.818;15.224;2023-12-07T04:03:03;7.70;;;6.83;;
16159;SDS011;8185;57.818;15.224;2023-12-07T04:05:30;8.37;;;7.43;;
16159;SDS011;8185;57.818;15.224;2023-12-07T04:07:57;7.17;;;6.47;;
16159;SDS011;8185;57.818;15.224;2023-12-07T04:10:26;8.10;;;6.50;;
16159;SDS011;8185;57.818;15.224;2023-12-07T04:12:53;8.73;;;6.67;;
16159;SDS011;8185;57.818;15.224;2023-12-07T04:15:20;7.53;;;5.87;;
16159;SDS011;8185;57.818;15.224;2023-12-07T04:17:48;7.83;;;7.03;;
16159;SDS011;8185;57.818;15.224;2023-12-07T04:20:16;7.70;;;6.90;;
16159;SDS011;8185;57.818;15.224;2023-12-07T04:22:43;8.57;;;7.53;;
16159;SDS011;8185;57.818;15.224;2023-12-07T04:25:11;8.70;;;7.20;;
16159;SDS011;8185;57.818;15.224;2023-12-07T04:27:40;9.10;;;7.77;;
16159;SDS011;8185;57.818;15.224;2023-12-07T04:30:08;9.27;;;7.73;;
16159;SDS011;8185;57.818;15.224;2023-12-07T04:32:36;10.50;;;7.43;;
16159;SDS011;8185;57.818;15.224;2023-12-07T04:35:04;9.17;;;8.17;;
16159;SDS011;8185;57.818;15.224;2023-12-07T04:37:32;9.67;;;7.63;;
16159;SDS011;8185;57.818;15.224;2023-12-07T04:39:59;8.70;;;7.90;;
16159;SDS011;8185;57.818;15.224;2023-12-07T04:42:26;8.30;;;7.50;;
16159;SDS011;8185;57.818;15.224;2023-12-07T04:44:55;8.37;;;7.57;;
16159;SDS011;8185;57.818;15.224;2023-12-07T04:47:22;8.33;;;7.43;;
16159;SDS011;8185;57.818;15.224;2023-12-07T04:49:50;9.00;;;7.17;;
16159;SDS011;8185;57.818;15.224;2023-12-07T04:52:17;11.03;;;8.70;;
16159;SDS011;8185;57.818;15.224;2023-12-07T04:54:44;10.83;;;8.67;;
16159;SDS011;8185;57.818;15.224;2023-12-07T04:57:11;9.30;;;8.27;;
16159;SDS011;8185;57.818;15.224;2023-12-07T04:59:38;7.87;;;6.93;;
16159;SDS011;8185;57.818;15.224;2023-12-07T05:02:07;8.77;;;7.40;;
16159;SDS011;8185;57.818;15.224;2023-12-07T05:04:34;9.53;;;7.77;;
16159;SDS011;8185;57.818;15.224;2023-12-07T05:07:02;7.90;;;7.10;;
16159;SDS011;8185;57.818;15.224;2023-12-07T05:09:29;7.87;;;7.10;;
16159;SDS011;8185;57.818;15.224;2023-12-07T05:11:57;7.70;;;6.70;;
16159;SDS011;8185;57.818;15.224;2023-12-07T05:14:24;9.57;;;7.30;;
16159;SDS011;8185;57.818;15.224;2023-12-07T05:16:51;9.00;;;8.10;;
16159;SDS011;8185;57.818;15.224;2023-12-07T05:19:22;8.57;;;7.63;;
16159;SDS011;8185;57.818;15.224;2023-12-07T05:21:49;8.63;;;7.73;;
16159;SDS011;8185;57.818;15.224;2023-12-07T05:24:17;8.80;;;7.90;;
16159;SDS011;8185;57.818;15.224;2023-12-07T05:26:45;8.97;;;7.73;;
16159;SDS011;8185;57.818;15.224;2023-12-07T05:29:12;9.23;;;7.47;;
16159;SDS011;8185;57.818;15.224;2023-12-07T05:31:40;8.63;;;7.73;;
16159;SDS011;8185;57.818;15.224;2023-12-07T05:34:07;9.07;;;8.17;;
16159;SDS011;8185;57.818;15.224;2023-12-07T05:36:36;10.67;;;8.60;;
16159;SDS011;8185;57.818;15.224;2023-12-07T05:39:03;9.47;;;8.20;;
16159;SDS011;8185;57.818;15.224;2023-12-07T05:41:32;9.60;;;8.60;;
16159;SDS011;8185;57.818;15.224;2023-12-07T05:43:59;10.07;;;8.83;;
16159;SDS011;8185;57.818;15.224;2023-12-07T05:46:27;10.10;;;8.67;;
16159;SDS011;8185;57.818;15.224;2023-12-07T05:48:54;9.30;;;8.30;;
16159;SDS011;8185;57.818;15.224;2023-12-07T05:51:22;9.97;;;8.03;;
16159;SDS011;8185;57.818;15.224;2023-12-07T05:53:51;8.60;;;7.70;;
16159;SDS011;8185;57.818;15.224;2023-12-07T05:56:19;8.60;;;7.77;;
16159;SDS011;8185;57.818;15.224;2023-12-07T05:58:47;8.93;;;7.30;;
16159;SDS011;8185;57.818;15.224;2023-12-07T06:01:16;8.50;;;7.70;;
16159;SDS011;8185;57.818;15.224;2023-12-07T06:03:44;8.50;;;7.60;;
16159;SDS011;8185;57.818;15.224;2023-12-07T06:06:11;10.23;;;8.20;;
16159;SDS011;8185;57.818;15.224;2023-12-07T06:08:38;8.87;;;7.90;;
16159;SDS011;8185;57.818;15.224;2023-12-07T06:11:08;11.17;;;9.13;;
16159;SDS011;8185;57.818;15.224;2023-12-07T06:13:35;12.97;;;8.17;;
16159;SDS011;8185;57.818;15.224;2023-12-07T06:16:04;10.80;;;8.30;;
16159;SDS011;8185;57.818;15.224;2023-12-07T06:18:31;9.17;;;8.20;;
16159;SDS011;8185;57.818;15.224;2023-12-07T06:20:59;9.17;;;8.27;;
16159;SDS011;8185;57.818;15.224;2023-12-07T06:23:28;9.50;;;7.80;;
16159;SDS011;8185;57.818;15.224;2023-12-07T06:25:55;10.70;;;9.07;;
16159;SDS011;8185;57.818;15.224;2023-12-07T06:28:24;10.87;;;8.47;;
16159;SDS011;8185;57.818;15.224;2023-12-07T06:30:52;12.33;;;8.03;;
16159;SDS011;8185;57.818;15.224;2023-12-07T06:33:19;8.70;;;7.60;;
16159;SDS011;8185;57.818;15.224;2023-12-07T06:35:46;8.87;;;7.70;;
16159;SDS011;8185;57.818;15.224;2023-12-07T06:38:14;8.73;;;7.80;;
16159;SDS011;8185;57.818;15.224;2023-12-07T06:40:41;8.90;;;7.63;;
16159;SDS011;8185;57.818;15.224;2023-12-07T06:43:09;9.23;;;7.77;;
16159;SDS011;8185;57.818;15.224;2023-12-07T06:45:38;8.37;;;7.57;;
16159;SDS011;8185;57.818;15.224;2023-12-07T06:48:05;9.60;;;7.37;;
16159;SDS011;8185;57.818;15.224;2023-12-07T06:50:32;7.97;;;6.83;;
16159;SDS011;8185;57.818;15.224;2023-12-07T06:52:59;6.97;;;6.27;;
16159;SDS011;8185;57.818;15.224;2023-12-07T06:55:27;8.07;;;7.27;;
16159;SDS011;8185;57.818;15.224;2023-12-07T06:57:54;7.40;;;6.70;;
16159;SDS011;8185;57.818;15.224;2023-12-07T07:00:21;6.90;;;6.23;;
16159;SDS011;8185;57.818;15.224;2023-12-07T07:02:51;7.67;;;6.70;;
16159;SDS011;8185;57.818;15.224;2023-12-07T07:05:18;7.37;;;6.63;;
16159;SDS011;8185;57.818;15.224;2023-12-07T07:07:46;8.37;;;6.90;;
16159;SDS011;8185;57.818;15.224;2023-12-07T07:10:13;10.27;;;7.57;;
16159;SDS011;8185;57.818;15.224;2023-12-07T07:12:40;8.53;;;7.63;;
16159;SDS011;8185;57.818;15.224;2023-12-07T07:15:08;8.40;;;7.10;;
16159;SDS011;8185;57.818;15.224;2023-12-07T07:17:35;8.40;;;7.37;;
16159;SDS011;8185;57.818;15.224;2023-12-07T07:20:05;8.47;;;7.57;;
16159;SDS011;8185;57.818;15.224;2023-12-07T07:22:33;7.60;;;6.90;;
16159;SDS011;8185;57.818;15.224;2023-12-07T07:25:00;8.00;;;7.20;;
16159;SDS011;8185;57.818;15.224;2023-12-07T07:27:28;8.00;;;7.20;;
16159;SDS011;8185;57.818;15.224;2023-12-07T07:29:55;8.00;;;7.17;;
16159;SDS011;8185;57.818;15.224;2023-12-07T07:32:22;8.27;;;7.47;;
16159;SDS011;8185;57.818;15.224;2023-12-07T07:34:49;8.33;;;7.53;;
16159;SDS011;8185;57.818;15.224;2023-12-07T07:37:18;8.13;;;7.03;;
16159;SDS011;8185;57.818;15.224;2023-12-07T07:39:45;8.33;;;7.40;;
16159;SDS011;8185;57.818;15.224;2023-12-07T07:42:13;8.10;;;7.30;;
16159;SDS011;8185;57.818;15.224;2023-12-07T07:44:41;7.93;;;7.13;;
16159;SDS011;8185;57.818;15.224;2023-12-07T07:47:09;8.73;;;7.83;;
16159;SDS011;8185;57.818;15.224;2023-12-07T07:49:36;8.60;;;7.77;;
16159;SDS011;8185;57.818;15.224;2023-12-07T07:52:04;8.40;;;7.20;;
16159;SDS011;8185;57.818;15.224;2023-12-07T07:54:33;9.13;;;7.27;;
16159;SDS011;8185;57.818;15.224;2023-12-07T07:57:00;8.40;;;7.37;;
16159;SDS011;8185;57.818;15.224;2023-12-07T07:59:27;8.23;;;7.33;;
16159;SDS011;8185;57.818;15.224;2023-12-07T08:01:56;8.67;;;7.77;;
16159;SDS011;8185;57.818;15.224;2023-12-07T08:04:23;8.87;;;7.97;;
16159;SDS011;8185;57.818;15.224;2023-12-07T08:06:51;10.17;;;8.33;;
16159;SDS011;8185;57.818;15.224;2023-12-07T08:09:18;8.67;;;7.77;;
16159;SDS011;8185;57.818;15.224;2023-12-07T08:11:46;8.73;;;7.93;;
16159;SDS011;8185;57.818;15.224;2023-12-07T08:14:13;9.97;;;8.77;;
16159;SDS011;8185;57.818;15.224;2023-12-07T08:16:42;10.20;;;9.20;;
16159;SDS011;8185;57.818;15.224;2023-12-07T08:19:11;9.47;;;8.40;;
16159;SDS011;8185;57.818;15.224;2023-12-07T08:21:39;10.30;;;9.30;;
16159;SDS011;8185;57.818;15.224;2023-12-07T08:24:06;10.13;;;8.87;;
16159;SDS011;8185;57.818;15.224;2023-12-07T08:26:33;9.93;;;8.93;;
16159;SDS011;8185;57.818;15.224;2023-12-07T08:29:02;9.27;;;8.17;;
16159;SDS011;8185;57.818;15.224;2023-12-07T08:31:29;9.67;;;8.57;;
16159;SDS011;8185;57.818;15.224;2023-12-07T08:33:56;10.07;;;8.27;;
16159;SDS011;8185;57.818;15.224;2023-12-07T08:36:24;8.80;;;7.60;;
16159;SDS011;8185;57.818;15.224;2023-12-07T08:38:51;9.37;;;8.30;;
16159;SDS011;8185;57.818;15.224;2023-12-07T08:41:19;9.27;;;7.87;;
16159;SDS011;8185;57.818;15.224;2023-12-07T08:43:46;8.80;;;7.90;;
16159;SDS011;8185;57.818;15.224;2023-12-07T08:46:15;8.03;;;7.23;;
16159;SDS011;8185;57.818;15.224;2023-12-07T08:48:42;9.83;;;8.20;;
16159;SDS011;8185;57.818;15.224;2023-12-07T08:51:09;8.60;;;7.70;;
16159;SDS011;8185;57.818;15.224;2023-12-07T08:53:36;8.27;;;7.27;;
16159;SDS011;8185;57.818;15.224;2023-12-07T08:56:04;9.07;;;7.47;;
16159;SDS011;8185;57.818;15.224;2023-12-07T08:58:32;7.80;;;7.00;;
16159;SDS011;8185;57.818;15.224;2023-12-07T09:00:59;9.20;;;8.20;;
16159;SDS011;8185;57.818;15.224;2023-12-07T09:03:28;8.40;;;7.37;;
16159;SDS011;8185;57.818;15.224;2023-12-07T09:05:57;7.60;;;6.80;;
16159;SDS011;8185;57.818;15.224;2023-12-07T09:08:24;8.53;;;7.27;;
16159;SDS011;8185;57.818;15.224;2023-12-07T09:10:51;8.37;;;7.03;;
16159;SDS011;8185;57.818;15.224;2023-12-07T09:13:18;7.40;;;6.70;;
16159;SDS011;8185;57.818;15.224;2023-12-07T09:15:46;8.23;;;6.93;;
16159;SDS011;8185;57.818;15.224;2023-12-07T09:18:13;7.40;;;6.57;;
16159;SDS011;8185;57.818;15.224;2023-12-07T09:20:41;7.73;;;6.77;;
16159;SDS011;8185;57.818;15.224;2023-12-07T09:23:11;8.73;;;6.93;;
16159;SDS011;8185;57.818;15.224;2023-12-07T09:25:40;7.70;;;6.90;;
16159;SDS011;8185;57.818;15.224;2023-12-07T09:28:07;9.57;;;7.20;;
16159;SDS011;8185;57.818;15.224;2023-12-07T09:30:34;8.90;;;7.20;;
16159;SDS011;8185;57.818;15.224;2023-12-07T09:33:02;7.70;;;6.90;;
16159;SDS011;8185;57.818;15.224;2023-12-07T09:35:29;7.27;;;6.57;;
16159;SDS011;8185;57.818;15.224;2023-12-07T09:38:01;8.87;;;6.93;;
16159;SDS011;8185;57.818;15.224;2023-12-07T09:40:29;7.20;;;6.40;;
16159;SDS011;8185;57.818;15.224;2023-12-07T09:42:56;7.03;;;6.27;;
16159;SDS011;8185;57.818;15.224;2023-12-07T09:45:23;7.83;;;6.90;;
16159;SDS011;8185;57.818;15.224;2023-12-07T09:47:51;8.83;;;6.80;;
16159;SDS011;8185;57.818;15.224;2023-12-07T09:50:20;6.77;;;6.07;;
16159;SDS011;8185;57.818;15.224;2023-12-07T09:52:48;8.67;;;7.07;;
16159;SDS011;8185;57.818;15.224;2023-12-07T09:55:17;7.30;;;6.17;;
16159;SDS011;8185;57.818;15.224;2023-12-07T09:57:47;9.10;;;7.67;;
16159;SDS011;8185;57.818;15.224;2023-12-07T10:00:15;8.73;;;7.33;;
16159;SDS011;8185;57.818;15.224;2023-12-07T10:02:44;8.80;;;7.40;;
16159;SDS011;8185;57.818;15.224;2023-12-07T10:05:12;7.87;;;7.07;;
16159;SDS011;8185;57.818;15.224;2023-12-07T10:07:42;7.93;;;7.13;;
16159;SDS011;8185;57.818;15.224;2023-12-07T10:10:12;7.63;;;6.80;;
16159;SDS011;8185;57.818;15.224;2023-12-07T10:12:45;7.60;;;6.70;;
16159;SDS011;8185;57.818;15.224;2023-12-07T10:15:14;7.70;;;6.40;;
16159;SDS011;8185;57.818;15.224;2023-12-07T10:17:43;7.37;;;6.67;;
16159;SDS011;8185;57.818;15.224;2023-12-07T10:20:13;7.63;;;6.63;;
16159;SDS011;8185;57.818;15.224;2023-12-07T10:22:45;7.90;;;6.70;;
16159;SDS011;8185;57.818;15.224;2023-12-07T10:25:12;7.77;;;6.73;;
16159;SDS011;8185;57.818;15.224;2023-12-07T10:27:40;7.10;;;6.30;;
16159;SDS011;8185;57.818;15.224;2023-12-07T10:30:10;6.90;;;6.20;;
16159;SDS011;8185;57.818;15.224;2023-12-07T10:32:38;7.60;;;6.40;;
16159;SDS011;8185;57.818;15.224;2023-12-07T10:35:06;7.63;;;6.83;;
16159;SDS011;8185;57.818;15.224;2023-12-07T10:37:35;6.97;;;6.27;;
16159;SDS011;8185;57.818;15.224;2023-12-07T10:40:02;6.83;;;6.13;;
16159;SDS011;8185;57.818;15.224;2023-12-07T10:42:33;8.10;;;6.67;;
16159;SDS011;8185;57.818;15.224;2023-12-07T10:45:05;8.07;;;6.90;;
16159;SDS011;8185;57.818;15.224;2023-12-07T10:47:38;7.23;;;6.50;;
16159;SDS011;8185;57.818;15.224;2023-12-07T10:50:06;7.67;;;6.63;;
16159;SDS011;8185;57.818;15.224;2023-12-07T10:52:39;7.80;;;7.00;;
16159;SDS011;8185;57.818;15.224;2023-12-07T10:55:13;7.27;;;6.57;;
16159;SDS011;8185;57.818;15.224;2023-12-07T10:57:44;7.83;;;7.03;;
16159;SDS011;8185;57.818;15.224;2023-12-07T11:00:13;8.87;;;7.50;;
16159;SDS011;8185;57.818;15.224;2023-12-07T11:02:42;8.27;;;7.43;;
16159;SDS011;8185;57.818;15.224;2023-12-07T11:05:11;8.47;;;7.63;;
16159;SDS011;8185;57.818;15.224;2023-12-07T11:07:41;8.17;;;6.97;;
16159;SDS011;8185;57.818;15.224;2023-12-07T11:10:17;8.10;;;7.33;;
16159;SDS011;8185;57.818;15.224;2023-12-07T11:12:57;8.77;;;7.73;;
16159;SDS011;8185;57.818;15.224;2023-12-07T11:15:34;7.97;;;7.03;;
16159;SDS011;8185;57.818;15.224;2023-12-07T11:18:04;8.17;;;7.30;;
16159;SDS011;8185;57.818;15.224;2023-12-07T11:20:38;8.17;;;6.70;;
16159;SDS011;8185;57.818;15.224;2023-12-07T11:23:07;9.67;;;7.77;;
16159;SDS011;8185;57.818;15.224;2023-12-07T11:25:35;7.77;;;6.97;;
16159;SDS011;8185;57.818;15.224;2023-12-07T11:28:03;7.93;;;6.50;;
16159;SDS011;8185;57.818;15.224;2023-12-07T11:30:32;7.77;;;6.93;;
16159;SDS011;8185;57.818;15.224;2023-12-07T11:33:01;7.90;;;7.10;;
16159;SDS011;8185;57.818;15.224;2023-12-07T11:35:32;8.70;;;7.53;;
16159;SDS011;8185;57.818;15.224;2023-12-07T11:38:00;8.03;;;6.83;;
16159;SDS011;8185;57.818;15.224;2023-12-07T11:40:34;8.17;;;7.40;;
16159;SDS011;8185;57.818;15.224;2023-12-07T11:43:02;7.80;;;7.00;;
16159;SDS011;8185;57.818;15.224;2023-12-07T11:45:40;7.03;;;6.33;;
16159;SDS011;8185;57.818;15.224;2023-12-07T11:48:11;7.40;;;6.57;;
16159;SDS011;8185;57.818;15.224;2023-12-07T11:50:55;6.63;;;5.90;;
16159;SDS011;8185;57.818;15.224;2023-12-07T11:53:23;7.20;;;6.50;;
16159;SDS011;8185;57.818;15.224;2023-12-07T11:55:51;6.87;;;6.17;;
16159;SDS011;8185;57.818;15.224;2023-12-07T11:58:19;6.73;;;6.07;;
16159;SDS011;8185;57.818;15.224;2023-12-07T12:00:46;8.40;;;6.00;;
16159;SDS011;8185;57.818;15.224;2023-12-07T12:03:15;6.40;;;5.73;;
16159;SDS011;8185;57.818;15.224;2023-12-07T12:05:42;7.30;;;6.00;;
16159;SDS011;8185;57.818;15.224;2023-12-07T12:08:10;6.73;;;6.00;;
16159;SDS011;8185;57.818;15.224;2023-12-07T12:10:37;7.43;;;6.27;;
16159;SDS011;8185;57.818;15.224;2023-12-07T12:13:07;7.20;;;6.10;;
16159;SDS011;8185;57.818;15.224;2023-12-07T12:15:34;6.83;;;5.67;;
16159;SDS011;8185;57.818;15.224;2023-12-07T12:18:02;7.33;;;6.20;;
16159;SDS011;8185;57.818;15.224;2023-12-07T12:20:31;6.67;;;5.77;;
16159;SDS011;8185;57.818;15.224;2023-12-07T12:22:58;5.90;;;5.30;;
16159;SDS011;8185;57.818;15.224;2023-12-07T12:25:26;6.70;;;5.90;;
16159;SDS011;8185;57.818;15.224;2023-12-07T12:27:55;7.10;;;6.37;;
16159;SDS011;8185;57.818;15.224;2023-12-07T12:30:24;7.03;;;6.33;;
16159;SDS011;8185;57.818;15.224;2023-12-07T12:32:51;7.83;;;6.23;;
16159;SDS011;8185;57.818;15.224;2023-12-07T12:35:18;7.13;;;6.43;;
16159;SDS011;8185;57.818;15.224;2023-12-07T12:37:47;7.83;;;6.47;;
16159;SDS011;8185;57.818;15.224;2023-12-07T12:40:15;7.40;;;6.07;;
16159;SDS011;8185;57.818;15.224;2023-12-07T12:42:44;6.83;;;6.13;;
16159;SDS011;8185;57.818;15.224;2023-12-07T12:45:12;7.20;;;6.40;;
16159;SDS011;8185;57.818;15.224;2023-12-07T12:47:40;7.60;;;6.80;;
16159;SDS011;8185;57.818;15.224;2023-12-07T12:50:09;7.80;;;6.43;;
16159;SDS011;8185;57.818;15.224;2023-12-07T12:52:37;6.93;;;6.00;;
16159;SDS011;8185;57.818;15.224;2023-12-07T12:55:09;7.83;;;6.57;;
16159;SDS011;8185;57.818;15.224;2023-12-07T12:57:37;7.37;;;6.67;;
16159;SDS011;8185;57.818;15.224;2023-12-07T13:00:05;7.03;;;5.97;;
16159;SDS011;8185;57.818;15.224;2023-12-07T13:02:33;7.07;;;6.20;;
16159;SDS011;8185;57.818;15.224;2023-12-07T13:05:00;6.83;;;6.13;;
16159;SDS011;8185;57.818;15.224;2023-12-07T13:07:28;7.80;;;6.77;;
16159;SDS011;8185;57.818;15.224;2023-12-07T13:09:55;7.30;;;6.60;;
16159;SDS011;8185;57.818;15.224;2023-12-07T13:12:24;7.10;;;6.00;;
16159;SDS011;8185;57.818;15.224;2023-12-07T13:14:53;6.63;;;5.90;;
16159;SDS011;8185;57.818;15.224;2023-12-07T13:17:20;7.87;;;6.60;;
16159;SDS011;8185;57.818;15.224;2023-12-07T13:19:49;7.77;;;6.30;;
16159;SDS011;8185;57.818;15.224;2023-12-07T13:22:16;6.97;;;6.13;;
16159;SDS011;8185;57.818;15.224;2023-12-07T13:24:45;6.77;;;6.07;;
16159;SDS011;8185;57.818;15.224;2023-12-07T13:27:14;7.30;;;6.60;;
16159;SDS011;8185;57.818;15.224;2023-12-07T13:29:44;8.17;;;7.03;;
16159;SDS011;8185;57.818;15.224;2023-12-07T13:32:11;9.17;;;7.53;;
16159;SDS011;8185;57.818;15.224;2023-12-07T13:34:39;9.37;;;8.30;;
16159;SDS011;8185;57.818;15.224;2023-12-07T13:37:06;9.83;;;7.20;;
16159;SDS011;8185;57.818;15.224;2023-12-07T13:39:33;7.53;;;6.73;;
16159;SDS011;8185;57.818;15.224;2023-12-07T13:42:01;9.27;;;7.37;;
16159;SDS011;8185;57.818;15.224;2023-12-07T13:44:29;9.50;;;7.33;;
16159;SDS011;8185;57.818;15.224;2023-12-07T13:46:59;8.60;;;7.70;;
16159;SDS011;8185;57.818;15.224;2023-12-07T13:49:26;7.40;;;6.67;;
16159;SDS011;8185;57.818;15.224;2023-12-07T13:51:53;7.90;;;6.97;;
16159;SDS011;8185;57.818;15.224;2023-12-07T13:54:20;7.97;;;6.67;;
16159;SDS011;8185;57.818;15.224;2023-12-07T13:56:48;7.43;;;6.73;;
16159;SDS011;8185;57.818;15.224;2023-12-07T13:59:15;7.47;;;6.53;;
16159;SDS011;8185;57.818;15.224;2023-12-07T14:01:42;8.27;;;6.97;;
16159;SDS011;8185;57.818;15.224;2023-12-07T14:04:11;8.40;;;7.50;;
16159;SDS011;8185;57.818;15.224;2023-12-07T14:06:38;9.33;;;7.23;;
16159;SDS011;8185;57.818;15.224;2023-12-07T14:09:05;8.87;;;7.37;;
16159;SDS011;8185;57.818;15.224;2023-12-07T14:11:33;8.83;;;7.30;;
16159;SDS011;8185;57.818;15.224;2023-12-07T14:14:00;9.27;;;7.63;;
16159;SDS011;8185;57.818;15.224;2023-12-07T14:16:29;9.57;;;7.87;;
16159;SDS011;8185;57.818;15.224;2023-12-07T14:18:56;11.03;;;8.57;;
16159;SDS011;8185;57.818;15.224;2023-12-07T14:24:10;9.43;;;8.23;;
16159;SDS011;8185;57.818;15.224;2023-12-07T14:26:38;8.43;;;7.60;;
16159;SDS011;8185;57.818;15.224;2023-12-07T14:29:08;9.60;;;7.70;;
16159;SDS011;8185;57.818;15.224;2023-12-07T14:31:40;9.00;;;8.10;;
16159;SDS011;8185;57.818;15.224;2023-12-07T14:34:07;10.23;;;8.60;;
16159;SDS011;8185;57.818;15.224;2023-12-07T14:36:34;9.40;;;8.30;;
16159;SDS011;8185;57.818;15.224;2023-12-07T14:39:05;10.93;;;8.67;;
16159;SDS011;8185;57.818;15.224;2023-12-07T14:41:34;9.43;;;8.40;;
16159;SDS011;8185;57.818;15.224;2023-12-07T14:44:02;9.47;;;8.13;;
16159;SDS011;8185;57.818;15.224;2023-12-07T14:46:30;8.77;;;7.80;;
16159;SDS011;8185;57.818;15.224;2023-12-07T14:48:58;9.17;;;8.10;;
16159;SDS011;8185;57.818;15.224;2023-12-07T14:51:25;9.00;;;8.07;;
16159;SDS011;8185;57.818;15.224;2023-12-07T14:53:52;9.73;;;8.53;;
16159;SDS011;8185;57.818;15.224;2023-12-07T14:56:21;9.80;;;8.50;;